Asharoken, New York
Current Conditions -  °F | °C
As of 1:53 AM on Friday 19 Dec 2014 (Local Time) from KFRG Reporting Station
Overcast Overcast  
Wind Chill: 36°   Ceiling: 5500
Heat Index: 36°   Visibility: 10mi
Dew Point: 26°   Wind: 3mph
Humidity: 67%   Direction: 330°NNW
Pressure: 29.96"   Gusts: NA
Location:  40.9096°N, 73.3231°W
Report Text: KFRG 190653Z AUTO 33003KT 10SM OVC055 02/M03 A2996 RMK AO2 SLP146 T00221033
Loading
Personal Weather Stations






























Interactive Weather Map New forecast layout! Learn more

10-Day Weather Forecast

Advertisements
Track Severe Weather on mobile